Gypsumville, Canada
Current Conditions -  °F | °C
As of 8:44 PM on Sunday 21 Dec 2014 (Local Time) from CYDN Reporting Station
Light Snow Light Snow  
Wind Chill: 16°   Ceiling: 200
Heat Index: 27°   Visibility: 1.2mi
Dew Point: 27°   Wind: 13mph
Humidity: 100%   Direction: 120°ESE
Pressure: 29.55"   Gusts: NA
Location:  51.77°N, 98.62°W
Report Text: CYDN 220244Z AUTO 12011KT 1 1/4SM -SN OVC002 M03/M03 A2955 RMK ICG INTMT SLP023
Loading
Personal Weather Stations






























Interactive Weather Map New forecast layout! Learn more

10-Day Weather Forecast

Advertisements
Track Severe Weather on mobile